Elko New Market, MN

4:20 AM CDT on October 15, 2019 (GMT -0500)
Elko New Market | | Change Station
Active Advisory: Flood Warning

Elev 1135 ft 44.55 °N, 93.33 °W | Updated 47 seconds ago

Partly Cloudy
Partly Cloudy
40.4 °F
Feels Like 40 °F
N
0
Wind Variable Wind from NW
Gusts 0.0 mph

Today
High -- | Low -- °F
--% Chance of Precip.
Yesterday
High -- | Low -- °F
Precip. -- in
Pressure 29.75 in
Visibility 10.0 miles
Clouds Mostly Cloudy 5000 ft
Windchill 40 °F
Dew Point 39 °F
Humidity 93%
Rainfall 0.03 in
Snow Depth Not available.
7:28 AM 6:29 PM
Full, 98% visible
METAR KFCM 150853Z AUTO 08010KT 10SM BKN050 08/03 A2974 RMK AO2 SLP073 60003 T00780033 58033
Pressure 29.75 in
Visibility 10.0 miles
Clouds Mostly Cloudy 5000 ft
Windchill 40 °F
Dew Point 39 °F
Humidity 93%
Rainfall 0.03 in
Snow Depth Not available.
7:28 AM 6:29 PM
Full, 98% visible
METAR KFCM 150853Z AUTO 08010KT 10SM BKN050 08/03 A2974 RMK AO2 SLP073 60003 T00780033 58033

Get Your Daily Forecast Email!

Thanks for signing up!

Be on the lookout for a verification email in your inbox.

You'll start receiving severe weather alerts in your inbox..

×

10-Day Weather Forecast

Almanac

Astronomy

Oct. 15, 2019 Rise Set
Actual Time
Civil Twilight
Nautical Twilight
Astronomical Twilight
Moon
Length of Visible Light
Length of Day
Tomorrow will be .
, % of the Moon is Illuminated

Today's Extremes

State Highs State Lows

Community

WunderPhotos

Category 6

Welcome to Category 6. This is the collective home for Weather Underground's featured writeups by Dr. Jeff Masters (right), Bob Henson (left), Chris Burt, and other regular contributors.

Nearby

Air Quality

  Air Quality AQ Index Pollutant
Not available.

Snow Depth

Station Depth Elevation

Earthquake Activity

City Distance Mag. Time & Date
Minimum magnitude displayed is 2.5.

Coastal Water Temperatures

Place Temperature

Stations

Nearby Weather Stations

Station Location Temp. Windchill Dew Point Humidity Wind Precip. Elev Updated Type
                   

Watches & Warnings

Flood Warning
Issued: 10:03 AM CDT Oct. 14, 2019 – National Weather Service

... Flood Warning now expected to end Thursday evening... the Flood
Warning continues for
the Minnesota river at Savage.
* Until Thursday evening.
* At 9:00 am Monday the stage was 703.2 feet.
* Minor flooding is occurring and minor flooding is forecast.
* Flood stage is 702.0 feet.
* Forecast... the river will continue rising to near 703.2 feet by
this afternoon. The river will fall below flood stage Thursday
morning.
* Impact... at 702.0 feet... barge loading stops at Port Cargill, and
other flood prevention measures are begun. Water begins to impact
Black Dog Road in Burnsville.
* Impact... at 700.0 feet... flood waters begin to cover trails at Fort
Snelling State Park as well as low parts on the Bloomington Ferry
bridge trail just east of US 169.


Lat... Lon 4482 9359 4485 9332 4494 9318 4481 9314 4473 9342 4475 9354